sensor_id;sensor_type;location;lat;lon;timestamp;pressure;altitude;pressure_sealevel;temperature;humidity
24280;BME280;12395;42.808;23.408;2022-09-01T00:01:50;94755.19;;;15.61;100.00
24280;BME280;12395;42.808;23.408;2022-09-01T00:04:18;94763.28;;;15.66;100.00
24280;BME280;12395;42.808;23.408;2022-09-01T00:06:44;94747.25;;;15.50;100.00
24280;BME280;12395;42.808;23.408;2022-09-01T00:09:13;94738.56;;;15.42;100.00
24280;BME280;12395;42.808;23.408;2022-09-01T00:11:41;94743.44;;;15.46;100.00
24280;BME280;12395;42.808;23.408;2022-09-01T00:14:08;94739.50;;;15.48;100.00
24280;BME280;12395;42.808;23.408;2022-09-01T00:16:34;94752.09;;;15.53;100.00
24280;BME280;12395;42.808;23.408;2022-09-01T00:19:00;94716.94;;;15.27;100.00
24280;BME280;12395;42.808;23.408;2022-09-01T00:21:29;94747.06;;;15.39;100.00
24280;BME280;12395;42.808;23.408;2022-09-01T00:23:55;94736.69;;;15.26;100.00
24280;BME280;12395;42.808;23.408;2022-09-01T00:26:20;94724.34;;;15.09;100.00
24280;BME280;12395;42.808;23.408;2022-09-01T00:28:45;94742.47;;;15.23;100.00
24280;BME280;12395;42.808;23.408;2022-09-01T00:31:11;94744.16;;;15.13;100.00
24280;BME280;12395;42.808;23.408;2022-09-01T00:33:39;94742.44;;;15.07;100.00
24280;BME280;12395;42.808;23.408;2022-09-01T00:36:05;94744.06;;;15.08;100.00
24280;BME280;12395;42.808;23.408;2022-09-01T00:38:31;94749.75;;;15.11;100.00
24280;BME280;12395;42.808;23.408;2022-09-01T00:40:57;94740.50;;;15.02;100.00
24280;BME280;12395;42.808;23.408;2022-09-01T00:43:37;94756.50;;;15.02;100.00
24280;BME280;12395;42.808;23.408;2022-09-01T00:46:05;94761.72;;;14.97;100.00
24280;BME280;12395;42.808;23.408;2022-09-01T00:48:31;94766.97;;;14.92;100.00
24280;BME280;12395;42.808;23.408;2022-09-01T00:50:57;94738.00;;;14.84;100.00
24280;BME280;12395;42.808;23.408;2022-09-01T00:53:23;94764.41;;;14.97;100.00
24280;BME280;12395;42.808;23.408;2022-09-01T00:55:48;94760.00;;;14.91;100.00
24280;BME280;12395;42.808;23.408;2022-09-01T00:58:14;94753.44;;;14.82;100.00
24280;BME280;12395;42.808;23.408;2022-09-01T01:00:39;94763.25;;;14.93;100.00
24280;BME280;12395;42.808;23.408;2022-09-01T01:03:10;94770.69;;;14.91;100.00
24280;BME280;12395;42.808;23.408;2022-09-01T01:05:42;94760.28;;;14.78;100.00
24280;BME280;12395;42.808;23.408;2022-09-01T01:08:11;94727.06;;;14.57;100.00
24280;BME280;12395;42.808;23.408;2022-09-01T01:10:39;94761.09;;;14.79;100.00
24280;BME280;12395;42.808;23.408;2022-09-01T01:13:11;94766.56;;;14.72;100.00
24280;BME280;12395;42.808;23.408;2022-09-01T01:15:38;94760.34;;;14.66;100.00
24280;BME280;12395;42.808;23.408;2022-09-01T01:18:14;94755.69;;;14.62;100.00
24280;BME280;12395;42.808;23.408;2022-09-01T01:20:41;94752.47;;;14.60;100.00
24280;BME280;12395;42.808;23.408;2022-09-01T01:25:57;94735.97;;;14.63;100.00
24280;BME280;12395;42.808;23.408;2022-09-01T01:28:25;94759.97;;;14.75;100.00
24280;BME280;12395;42.808;23.408;2022-09-01T01:31:14;94762.75;;;14.68;100.00
24280;BME280;12395;42.808;23.408;2022-09-01T01:33:43;94761.72;;;14.69;100.00
24280;BME280;12395;42.808;23.408;2022-09-01T01:38:43;94764.00;;;14.77;100.00
24280;BME280;12395;42.808;23.408;2022-09-01T01:41:10;94760.78;;;14.75;100.00
24280;BME280;12395;42.808;23.408;2022-09-01T01:43:36;94758.56;;;14.72;100.00
24280;BME280;12395;42.808;23.408;2022-09-01T01:46:07;94760.78;;;14.75;100.00
24280;BME280;12395;42.808;23.408;2022-09-01T01:48:37;94765.75;;;14.72;100.00
24280;BME280;12395;42.808;23.408;2022-09-01T01:51:03;94755.84;;;14.55;100.00
24280;BME280;12395;42.808;23.408;2022-09-01T01:53:30;94781.63;;;14.78;100.00
24280;BME280;12395;42.808;23.408;2022-09-01T01:55:56;94755.59;;;14.57;100.00
24280;BME280;12395;42.808;23.408;2022-09-01T01:58:23;94792.28;;;14.78;100.00
24280;BME280;12395;42.808;23.408;2022-09-01T02:00:51;94793.22;;;14.72;100.00
24280;BME280;12395;42.808;23.408;2022-09-01T02:03:21;94805.75;;;14.83;100.00
24280;BME280;12395;42.808;23.408;2022-09-01T02:05:50;94795.19;;;14.77;100.00
24280;BME280;12395;42.808;23.408;2022-09-01T02:08:16;94803.06;;;14.83;100.00
24280;BME280;12395;42.808;23.408;2022-09-01T02:10:47;94786.19;;;14.66;100.00
24280;BME280;12395;42.808;23.408;2022-09-01T02:13:15;94777.13;;;14.67;100.00
24280;BME280;12395;42.808;23.408;2022-09-01T02:15:48;94785.56;;;14.76;100.00
24280;BME280;12395;42.808;23.408;2022-09-01T02:18:25;94790.44;;;14.79;100.00
24280;BME280;12395;42.808;23.408;2022-09-01T02:20:53;94790.69;;;14.77;100.00
24280;BME280;12395;42.808;23.408;2022-09-01T02:23:20;94802.97;;;14.78;100.00
24280;BME280;12395;42.808;23.408;2022-09-01T02:25:55;94785.16;;;14.55;100.00
24280;BME280;12395;42.808;23.408;2022-09-01T02:28:22;94793.84;;;14.62;100.00
24280;BME280;12395;42.808;23.408;2022-09-01T02:30:50;94783.75;;;14.53;100.00
24280;BME280;12395;42.808;23.408;2022-09-01T02:33:17;94795.56;;;14.68;100.00
24280;BME280;12395;42.808;23.408;2022-09-01T02:35:57;94792.53;;;14.65;100.00
24280;BME280;12395;42.808;23.408;2022-09-01T02:38:23;94749.28;;;14.35;100.00
24280;BME280;12395;42.808;23.408;2022-09-01T02:40:55;94794.88;;;14.50;100.00
24280;BME280;12395;42.808;23.408;2022-09-01T02:43:21;94784.38;;;14.43;100.00
24280;BME280;12395;42.808;23.408;2022-09-01T02:45:50;94785.53;;;14.47;100.00
24280;BME280;12395;42.808;23.408;2022-09-01T02:48:33;94785.97;;;14.44;100.00
24280;BME280;12395;42.808;23.408;2022-09-01T02:51:03;94786.66;;;14.28;100.00
24280;BME280;12395;42.808;23.408;2022-09-01T02:53:30;94760.72;;;14.12;100.00
24280;BME280;12395;42.808;23.408;2022-09-01T02:55:56;94777.28;;;14.26;100.00
24280;BME280;12395;42.808;23.408;2022-09-01T02:58:22;94781.13;;;14.30;100.00
24280;BME280;12395;42.808;23.408;2022-09-01T03:00:51;94779.38;;;14.24;100.00
24280;BME280;12395;42.808;23.408;2022-09-01T03:03:18;94765.34;;;14.17;100.00
24280;BME280;12395;42.808;23.408;2022-09-01T03:05:44;94771.13;;;14.25;100.00
24280;BME280;12395;42.808;23.408;2022-09-01T03:08:10;94769.97;;;14.21;100.00
24280;BME280;12395;42.808;23.408;2022-09-01T03:10:41;94767.19;;;14.16;100.00
24280;BME280;12395;42.808;23.408;2022-09-01T03:13:10;94776.84;;;14.29;100.00
24280;BME280;12395;42.808;23.408;2022-09-01T03:15:37;94782.28;;;14.34;100.00
24280;BME280;12395;42.808;23.408;2022-09-01T03:18:04;94772.31;;;14.29;100.00
24280;BME280;12395;42.808;23.408;2022-09-01T03:20:31;94770.47;;;14.30;100.00
24280;BME280;12395;42.808;23.408;2022-09-01T03:22:59;94752.72;;;14.24;100.00
24280;BME280;12395;42.808;23.408;2022-09-01T03:25:24;94765.81;;;14.25;100.00
24280;BME280;12395;42.808;23.408;2022-09-01T03:27:51;94772.88;;;14.20;100.00
24280;BME280;12395;42.808;23.408;2022-09-01T03:30:17;94780.63;;;14.21;100.00
24280;BME280;12395;42.808;23.408;2022-09-01T03:32:42;94766.28;;;14.11;100.00
24280;BME280;12395;42.808;23.408;2022-09-01T03:35:09;94760.81;;;14.06;100.00
24280;BME280;12395;42.808;23.408;2022-09-01T03:37:36;94780.41;;;14.23;100.00
24280;BME280;12395;42.808;23.408;2022-09-01T03:40:04;94772.41;;;14.23;100.00
24280;BME280;12395;42.808;23.408;2022-09-01T03:42:30;94783.06;;;14.23;100.00
24280;BME280;12395;42.808;23.408;2022-09-01T03:44:56;94761.53;;;14.13;100.00
24280;BME280;12395;42.808;23.408;2022-09-01T03:47:22;94762.69;;;14.17;100.00
24280;BME280;12395;42.808;23.408;2022-09-01T03:49:49;94778.56;;;14.23;100.00
24280;BME280;12395;42.808;23.408;2022-09-01T03:52:16;94754.69;;;14.05;100.00
24280;BME280;12395;42.808;23.408;2022-09-01T03:54:42;94778.09;;;14.15;100.00
24280;BME280;12395;42.808;23.408;2022-09-01T03:57:08;94779.38;;;14.24;100.00
24280;BME280;12395;42.808;23.408;2022-09-01T03:59:34;94790.38;;;14.27;100.00
24280;BME280;12395;42.808;23.408;2022-09-01T04:02:00;94764.31;;;14.18;100.00
24280;BME280;12395;42.808;23.408;2022-09-01T04:04:27;94791.09;;;14.34;100.00
24280;BME280;12395;42.808;23.408;2022-09-01T04:06:57;94782.28;;;14.34;100.00
24280;BME280;12395;42.808;23.408;2022-09-01T04:09:25;94784.69;;;14.35;100.00
24280;BME280;12395;42.808;23.408;2022-09-01T04:11:51;94763.00;;;14.20;100.00
24280;BME280;12395;42.808;23.408;2022-09-01T04:14:17;94763.13;;;14.14;100.00
24280;BME280;12395;42.808;23.408;2022-09-01T04:16:43;94785.19;;;14.32;100.00
24280;BME280;12395;42.808;23.408;2022-09-01T04:19:27;94778.47;;;14.30;100.00
24280;BME280;12395;42.808;23.408;2022-09-01T04:21:57;94780.31;;;14.41;100.00
24280;BME280;12395;42.808;23.408;2022-09-01T04:24:25;94778.69;;;14.40;100.00
24280;BME280;12395;42.808;23.408;2022-09-01T04:26:53;94767.00;;;14.41;100.00
24280;BME280;12395;42.808;23.408;2022-09-01T04:29:20;94768.38;;;14.43;100.00
24280;BME280;12395;42.808;23.408;2022-09-01T04:32:00;94772.97;;;14.59;100.00
24280;BME280;12395;42.808;23.408;2022-09-01T04:34:28;94769.38;;;14.65;100.00
24280;BME280;12395;42.808;23.408;2022-09-01T04:36:54;94775.59;;;14.83;100.00
24280;BME280;12395;42.808;23.408;2022-09-01T04:39:22;94775.06;;;14.97;100.00
24280;BME280;12395;42.808;23.408;2022-09-01T04:41:48;94771.97;;;15.17;100.00
24280;BME280;12395;42.808;23.408;2022-09-01T04:44:16;94762.22;;;15.22;100.00
24280;BME280;12395;42.808;23.408;2022-09-01T04:46:43;94788.13;;;15.50;100.00
24280;BME280;12395;42.808;23.408;2022-09-01T04:49:12;94786.44;;;15.61;100.00
24280;BME280;12395;42.808;23.408;2022-09-01T04:51:46;94770.25;;;15.67;100.00
24280;BME280;12395;42.808;23.408;2022-09-01T04:54:12;94792.78;;;15.88;100.00
24280;BME280;12395;42.808;23.408;2022-09-01T04:56:40;94785.81;;;16.03;100.00
24280;BME280;12395;42.808;23.408;2022-09-01T04:59:08;94788.94;;;16.17;100.00
24280;BME280;12395;42.808;23.408;2022-09-01T05:01:35;94794.31;;;16.34;100.00
24280;BME280;12395;42.808;23.408;2022-09-01T05:04:19;94781.38;;;16.47;100.00
24280;BME280;12395;42.808;23.408;2022-09-01T05:06:47;94804.38;;;16.65;100.00
24280;BME280;12395;42.808;23.408;2022-09-01T05:09:15;94773.84;;;16.61;100.00
24280;BME280;12395;42.808;23.408;2022-09-01T05:11:42;94786.25;;;16.88;100.00
24280;BME280;12395;42.808;23.408;2022-09-01T05:14:09;94789.16;;;17.09;100.00
24280;BME280;12395;42.808;23.408;2022-09-01T05:16:34;94768.63;;;17.14;100.00
24280;BME280;12395;42.808;23.408;2022-09-01T05:19:02;94786.06;;;17.43;100.00
24280;BME280;12395;42.808;23.408;2022-09-01T05:21:28;94781.66;;;17.54;100.00
24280;BME280;12395;42.808;23.408;2022-09-01T05:23:56;94778.06;;;17.70;100.00
24280;BME280;12395;42.808;23.408;2022-09-01T05:26:28;94789.97;;;17.84;100.00
24280;BME280;12395;42.808;23.408;2022-09-01T05:28:58;94774.22;;;17.93;100.00
24280;BME280;12395;42.808;23.408;2022-09-01T05:31:25;94789.19;;;18.20;100.00
24280;BME280;12395;42.808;23.408;2022-09-01T05:33:52;94793.31;;;18.33;100.00
24280;BME280;12395;42.808;23.408;2022-09-01T05:36:21;94791.72;;;18.37;100.00
24280;BME280;12395;42.808;23.408;2022-09-01T05:38:48;94794.25;;;18.48;100.00
24280;BME280;12395;42.808;23.408;2022-09-01T05:41:16;94780.06;;;18.53;100.00
24280;BME280;12395;42.808;23.408;2022-09-01T05:43:44;94797.34;;;18.72;100.00
24280;BME280;12395;42.808;23.408;2022-09-01T05:46:18;94790.16;;;18.83;100.00
24280;BME280;12395;42.808;23.408;2022-09-01T05:48:45;94788.06;;;18.95;100.00
24280;BME280;12395;42.808;23.408;2022-09-01T05:51:15;94796.19;;;19.05;100.00
24280;BME280;12395;42.808;23.408;2022-09-01T05:53:47;94790.31;;;19.13;100.00
24280;BME280;12395;42.808;23.408;2022-09-01T05:56:16;94791.13;;;19.18;100.00
24280;BME280;12395;42.808;23.408;2022-09-01T05:58:41;94794.09;;;19.22;100.00
24280;BME280;12395;42.808;23.408;2022-09-01T06:01:08;94796.56;;;19.34;100.00
24280;BME280;12395;42.808;23.408;2022-09-01T06:03:37;94799.03;;;19.40;100.00
24280;BME280;12395;42.808;23.408;2022-09-01T06:06:05;94787.75;;;19.43;100.00
24280;BME280;12395;42.808;23.408;2022-09-01T06:08:33;94786.72;;;19.54;100.00
24280;BME280;12395;42.808;23.408;2022-09-01T06:11:00;94795.84;;;19.63;99.74
24280;BME280;12395;42.808;23.408;2022-09-01T06:13:25;94796.97;;;19.67;99.31
24280;BME280;12395;42.808;23.408;2022-09-01T06:15:51;94785.63;;;19.65;99.93
24280;BME280;12395;42.808;23.408;2022-09-01T06:18:18;94795.06;;;19.73;98.99
24280;BME280;12395;42.808;23.408;2022-09-01T06:20:46;94786.75;;;19.74;99.27
24280;BME280;12395;42.808;23.408;2022-09-01T06:23:13;94785.13;;;19.78;98.93
24280;BME280;12395;42.808;23.408;2022-09-01T06:25:41;94787.03;;;19.78;97.64
24280;BME280;12395;42.808;23.408;2022-09-01T06:28:10;94778.16;;;19.92;97.64
24280;BME280;12395;42.808;23.408;2022-09-01T06:30:37;94790.56;;;20.04;97.13
24280;BME280;12395;42.808;23.408;2022-09-01T06:33:03;94786.25;;;20.08;95.68
24280;BME280;12395;42.808;23.408;2022-09-01T06:35:34;94797.00;;;20.18;94.55
24280;BME280;12395;42.808;23.408;2022-09-01T06:38:00;94802.41;;;20.33;93.96
24280;BME280;12395;42.808;23.408;2022-09-01T06:40:27;94787.59;;;20.30;93.42
24280;BME280;12395;42.808;23.408;2022-09-01T06:42:52;94800.78;;;20.37;91.98
24280;BME280;12395;42.808;23.408;2022-09-01T06:45:20;94779.25;;;20.32;91.53
24280;BME280;12395;42.808;23.408;2022-09-01T06:47:47;94790.28;;;20.50;90.93
24280;BME280;12395;42.808;23.408;2022-09-01T06:50:17;94792.69;;;20.52;91.43
24280;BME280;12395;42.808;23.408;2022-09-01T06:52:44;94794.28;;;20.73;91.31
24280;BME280;12395;42.808;23.408;2022-09-01T06:55:11;94768.94;;;20.79;90.97
24280;BME280;12395;42.808;23.408;2022-09-01T06:57:38;94788.56;;;21.10;88.58
24280;BME280;12395;42.808;23.408;2022-09-01T07:00:10;94780.69;;;21.23;87.48
24280;BME280;12395;42.808;23.408;2022-09-01T07:02:47;94785.97;;;21.48;86.68
24280;BME280;12395;42.808;23.408;2022-09-01T07:05:17;94788.53;;;21.69;84.92
24280;BME280;12395;42.808;23.408;2022-09-01T07:07:54;94782.13;;;21.60;84.85
24280;BME280;12395;42.808;23.408;2022-09-01T07:10:25;94777.50;;;21.60;84.15
24280;BME280;12395;42.808;23.408;2022-09-01T07:12:52;94787.69;;;21.73;84.55
24280;BME280;12395;42.808;23.408;2022-09-01T07:15:21;94774.50;;;21.67;82.88
24280;BME280;12395;42.808;23.408;2022-09-01T07:17:49;94789.84;;;21.76;83.37
24280;BME280;12395;42.808;23.408;2022-09-01T07:20:16;94779.81;;;21.82;83.07
24280;BME280;12395;42.808;23.408;2022-09-01T07:22:41;94785.34;;;22.05;82.60
24280;BME280;12395;42.808;23.408;2022-09-01T07:25:08;94786.06;;;22.16;81.50
24280;BME280;12395;42.808;23.408;2022-09-01T07:27:35;94787.09;;;22.25;79.90
24280;BME280;12395;42.808;23.408;2022-09-01T07:30:01;94795.94;;;22.31;79.87
24280;BME280;12395;42.808;23.408;2022-09-01T07:32:27;94792.44;;;22.30;79.87
24280;BME280;12395;42.808;23.408;2022-09-01T07:34:54;94751.91;;;22.01;81.00
24280;BME280;12395;42.808;23.408;2022-09-01T07:37:20;94779.53;;;22.22;80.55
24280;BME280;12395;42.808;23.408;2022-09-01T07:39:47;94789.56;;;22.21;80.59
24280;BME280;12395;42.808;23.408;2022-09-01T07:42:12;94785.63;;;22.04;81.90
24280;BME280;12395;42.808;23.408;2022-09-01T07:44:41;94779.53;;;21.88;81.40
24280;BME280;12395;42.808;23.408;2022-09-01T07:47:06;94781.00;;;21.66;82.84
24280;BME280;12395;42.808;23.408;2022-09-01T07:49:34;94771.88;;;21.62;83.86
24280;BME280;12395;42.808;23.408;2022-09-01T07:52:03;94785.44;;;21.46;85.18
24280;BME280;12395;42.808;23.408;2022-09-01T07:54:29;94743.31;;;21.02;86.57
24280;BME280;12395;42.808;23.408;2022-09-01T07:56:55;94779.13;;;20.97;86.99
24280;BME280;12395;42.808;23.408;2022-09-01T07:59:20;94763.03;;;20.77;89.63
24280;BME280;12395;42.808;23.408;2022-09-01T08:01:46;94779.22;;;20.67;90.24
24280;BME280;12395;42.808;23.408;2022-09-01T08:04:11;94775.47;;;20.58;90.98
24280;BME280;12395;42.808;23.408;2022-09-01T08:06:37;94758.00;;;20.30;92.56
24280;BME280;12395;42.808;23.408;2022-09-01T08:09:02;94765.53;;;20.28;94.17
24280;BME280;12395;42.808;23.408;2022-09-01T08:11:31;94788.16;;;20.32;95.12
24280;BME280;12395;42.808;23.408;2022-09-01T08:13:58;94765.00;;;20.21;94.08
24280;BME280;12395;42.808;23.408;2022-09-01T08:16:25;94786.78;;;20.20;95.89
24280;BME280;12395;42.808;23.408;2022-09-01T08:18:51;94761.22;;;20.02;96.50
24280;BME280;12395;42.808;23.408;2022-09-01T08:21:18;94771.47;;;20.10;96.16
24280;BME280;12395;42.808;23.408;2022-09-01T08:23:46;94777.91;;;20.14;96.10
24280;BME280;12395;42.808;23.408;2022-09-01T08:26:16;94770.09;;;20.13;98.07
24280;BME280;12395;42.808;23.408;2022-09-01T08:28:41;94766.06;;;20.25;96.87
24280;BME280;12395;42.808;23.408;2022-09-01T08:31:08;94775.50;;;20.38;94.46
24280;BME280;12395;42.808;23.408;2022-09-01T08:33:38;94759.88;;;20.45;97.13
24280;BME280;12395;42.808;23.408;2022-09-01T08:36:10;94762.28;;;20.51;93.97
24280;BME280;12395;42.808;23.408;2022-09-01T08:38:36;94745.06;;;20.52;92.68
24280;BME280;12395;42.808;23.408;2022-09-01T08:41:02;94763.59;;;20.74;92.21
24280;BME280;12395;42.808;23.408;2022-09-01T08:44:07;94768.69;;;20.81;91.98
24280;BME280;12395;42.808;23.408;2022-09-01T08:46:30;94752.25;;;20.82;90.72
24280;BME280;12395;42.808;23.408;2022-09-01T08:49:00;94722.94;;;20.70;88.69
24280;BME280;12395;42.808;23.408;2022-09-01T08:57:05;94753.16;;;21.31;87.03
24280;BME280;12395;42.808;23.408;2022-09-01T08:59:30;94732.06;;;21.38;84.52
24280;BME280;12395;42.808;23.408;2022-09-01T09:02:27;94751.38;;;21.61;83.03
24280;BME280;12395;42.808;23.408;2022-09-01T09:10:18;94724.44;;;21.94;85.31
24280;BME280;12395;42.808;23.408;2022-09-01T09:15:57;94723.97;;;22.21;82.90
24280;BME280;12395;42.808;23.408;2022-09-01T09:18:34;94715.25;;;22.29;83.86
24280;BME280;12395;42.808;23.408;2022-09-01T09:21:34;94725.38;;;22.42;79.80
24280;BME280;12395;42.808;23.408;2022-09-01T09:27:16;94719.81;;;22.62;77.31
24280;BME280;12395;42.808;23.408;2022-09-01T09:29:42;94707.53;;;22.75;76.18
24280;BME280;12395;42.808;23.408;2022-09-01T09:32:09;94697.75;;;22.79;75.75
24280;BME280;12395;42.808;23.408;2022-09-01T09:34:40;94699.41;;;22.98;75.18
24280;BME280;12395;42.808;23.408;2022-09-01T09:37:26;94716.69;;;23.21;74.59
24280;BME280;12395;42.808;23.408;2022-09-01T09:40:08;94702.25;;;23.31;73.87
24280;BME280;12395;42.808;23.408;2022-09-01T09:42:38;94701.59;;;23.39;73.55
24280;BME280;12395;42.808;23.408;2022-09-01T09:47:45;94701.94;;;23.69;70.98
24280;BME280;12395;42.808;23.408;2022-09-01T09:50:27;94699.53;;;23.87;72.96
24280;BME280;12395;42.808;23.408;2022-09-01T09:55:59;94698.28;;;24.16;70.33
24280;BME280;12395;42.808;23.408;2022-09-01T09:58:35;94686.75;;;24.24;68.29
24280;BME280;12395;42.808;23.408;2022-09-01T10:01:11;94692.09;;;24.43;69.06
24280;BME280;12395;42.808;23.408;2022-09-01T10:03:51;94699.25;;;24.52;67.46
24280;BME280;12395;42.808;23.408;2022-09-01T10:06:38;94694.66;;;24.67;64.84
24280;BME280;12395;42.808;23.408;2022-09-01T10:11:54;94694.28;;;24.87;65.39
24280;BME280;12395;42.808;23.408;2022-09-01T10:14:24;94668.28;;;24.86;64.85
24280;BME280;12395;42.808;23.408;2022-09-01T10:17:00;94677.41;;;25.03;62.75
24280;BME280;12395;42.808;23.408;2022-09-01T10:19:28;94684.16;;;25.06;60.53
24280;BME280;12395;42.808;23.408;2022-09-01T10:21:55;94680.94;;;25.04;59.42
24280;BME280;12395;42.808;23.408;2022-09-01T10:26:59;94676.38;;;25.26;61.83
24280;BME280;12395;42.808;23.408;2022-09-01T10:29:53;94666.53;;;25.44;61.57
24280;BME280;12395;42.808;23.408;2022-09-01T10:32:25;94669.75;;;25.46;59.77
24280;BME280;12395;42.808;23.408;2022-09-01T10:34:52;94666.28;;;25.54;60.63
24280;BME280;12395;42.808;23.408;2022-09-01T10:37:18;94664.47;;;25.63;58.15
24280;BME280;12395;42.808;23.408;2022-09-01T10:40:10;94665.34;;;25.72;57.94
24280;BME280;12395;42.808;23.408;2022-09-01T10:42:35;94663.47;;;25.81;57.77
24280;BME280;12395;42.808;23.408;2022-09-01T10:45:01;94648.91;;;25.77;55.02
24280;BME280;12395;42.808;23.408;2022-09-01T10:47:30;94640.28;;;25.75;57.76
24280;BME280;12395;42.808;23.408;2022-09-01T10:50:23;94661.31;;;25.92;56.71
24280;BME280;12395;42.808;23.408;2022-09-01T10:55:17;94653.19;;;26.14;55.62
24280;BME280;12395;42.808;23.408;2022-09-01T10:58:04;94648.94;;;26.22;55.38
24280;BME280;12395;42.808;23.408;2022-09-01T11:10:56;94641.38;;;26.41;53.06
24280;BME280;12395;42.808;23.408;2022-09-01T11:21:47;94615.03;;;26.89;52.04
24280;BME280;12395;42.808;23.408;2022-09-01T11:27:06;94608.16;;;26.92;50.02
24280;BME280;12395;42.808;23.408;2022-09-01T11:29:52;94612.53;;;27.18;51.60
24280;BME280;12395;42.808;23.408;2022-09-01T11:32:20;94610.94;;;27.17;47.25
24280;BME280;12395;42.808;23.408;2022-09-01T11:34:48;94605.66;;;27.21;47.51
24280;BME280;12395;42.808;23.408;2022-09-01T11:37:19;94607.56;;;27.20;46.31
24280;BME280;12395;42.808;23.408;2022-09-01T11:39:48;94609.19;;;27.30;48.90
24280;BME280;12395;42.808;23.408;2022-09-01T11:42:18;94599.16;;;27.39;48.33
24280;BME280;12395;42.808;23.408;2022-09-01T11:47:40;94586.19;;;27.53;44.96
24280;BME280;12395;42.808;23.408;2022-09-01T11:50:31;94582.16;;;27.59;47.00
24280;BME280;12395;42.808;23.408;2022-09-01T11:55:45;94570.16;;;27.60;45.33
24280;BME280;12395;42.808;23.408;2022-09-01T11:58:33;94564.72;;;27.69;45.12
24280;BME280;12395;42.808;23.408;2022-09-01T12:01:15;94575.09;;;27.84;45.23
24280;BME280;12395;42.808;23.408;2022-09-01T12:03:42;94569.16;;;27.90;43.33
24280;BME280;12395;42.808;23.408;2022-09-01T12:06:09;94575.75;;;27.98;44.79
24280;BME280;12395;42.808;23.408;2022-09-01T12:08:40;94559.38;;;28.06;46.48
24280;BME280;12395;42.808;23.408;2022-09-01T12:11:06;94575.16;;;28.30;44.58
24280;BME280;12395;42.808;23.408;2022-09-01T12:13:34;94559.78;;;28.25;46.03
24280;BME280;12395;42.808;23.408;2022-09-01T12:16:03;94565.03;;;28.39;45.29
24280;BME280;12395;42.808;23.408;2022-09-01T12:18:34;94559.03;;;28.54;46.50
24280;BME280;12395;42.808;23.408;2022-09-01T12:21:05;94551.44;;;28.68;45.82
24280;BME280;12395;42.808;23.408;2022-09-01T12:23:35;94560.53;;;28.81;45.14
24280;BME280;12395;42.808;23.408;2022-09-01T12:26:04;94548.34;;;29.08;45.74
24280;BME280;12395;42.808;23.408;2022-09-01T12:28:31;94557.28;;;29.17;44.74
24280;BME280;12395;42.808;23.408;2022-09-01T12:31:04;94556.16;;;29.18;45.14
24280;BME280;12395;42.808;23.408;2022-09-01T12:33:31;94547.97;;;29.38;44.78
24280;BME280;12395;42.808;23.408;2022-09-01T12:38:48;94560.53;;;29.72;41.93
24280;BME280;12395;42.808;23.408;2022-09-01T12:41:33;94570.47;;;29.77;41.17
24280;BME280;12395;42.808;23.408;2022-09-01T12:46:54;94558.22;;;29.83;41.42
24280;BME280;12395;42.808;23.408;2022-09-01T12:49:25;94555.25;;;29.88;41.81
24280;BME280;12395;42.808;23.408;2022-09-01T12:52:25;94547.13;;;29.79;43.26
24280;BME280;12395;42.808;23.408;2022-09-01T12:55:08;94567.16;;;30.04;44.58
24280;BME280;12395;42.808;23.408;2022-09-01T13:02:35;94548.00;;;30.48;46.35
24280;BME280;12395;42.808;23.408;2022-09-01T13:05:37;94552.06;;;30.30;46.14
24280;BME280;12395;42.808;23.408;2022-09-01T13:08:08;94554.50;;;30.11;45.21
24280;BME280;12395;42.808;23.408;2022-09-01T13:10:42;94548.09;;;29.83;45.20
24280;BME280;12395;42.808;23.408;2022-09-01T13:13:09;94522.31;;;29.51;46.20
24280;BME280;12395;42.808;23.408;2022-09-01T13:15:37;94526.53;;;29.28;48.22
24280;BME280;12395;42.808;23.408;2022-09-01T13:18:03;94516.75;;;29.27;49.21
24280;BME280;12395;42.808;23.408;2022-09-01T13:20:29;94529.00;;;29.42;47.38
24280;BME280;12395;42.808;23.408;2022-09-01T13:22:54;94531.72;;;29.42;45.01
24280;BME280;12395;42.808;23.408;2022-09-01T13:25:21;94545.69;;;29.20;48.28
24280;BME280;12395;42.808;23.408;2022-09-01T13:27:48;94532.78;;;28.79;50.80
24280;BME280;12395;42.808;23.408;2022-09-01T13:30:18;94536.56;;;28.19;51.13
24280;BME280;12395;42.808;23.408;2022-09-01T13:32:45;94527.72;;;27.68;52.80
24280;BME280;12395;42.808;23.408;2022-09-01T13:35:14;94535.88;;;27.68;53.79
24280;BME280;12395;42.808;23.408;2022-09-01T13:37:40;94530.94;;;27.52;53.40
24280;BME280;12395;42.808;23.408;2022-09-01T13:40:07;94537.03;;;27.32;53.63
24280;BME280;12395;42.808;23.408;2022-09-01T13:42:43;94522.13;;;27.13;55.69
24280;BME280;12395;42.808;23.408;2022-09-01T13:45:10;94531.88;;;27.05;55.45
24280;BME280;12395;42.808;23.408;2022-09-01T13:47:40;94538.25;;;26.75;56.12
24280;BME280;12395;42.808;23.408;2022-09-01T13:50:08;94532.91;;;26.61;57.38
24280;BME280;12395;42.808;23.408;2022-09-01T13:52:36;94538.19;;;26.58;58.38
24280;BME280;12395;42.808;23.408;2022-09-01T13:55:02;94527.72;;;26.34;57.82
24280;BME280;12395;42.808;23.408;2022-09-01T13:57:27;94534.22;;;26.25;58.59
24280;BME280;12395;42.808;23.408;2022-09-01T13:59:54;94543.81;;;26.31;58.76
24280;BME280;12395;42.808;23.408;2022-09-01T14:02:20;94522.06;;;26.22;57.70
24280;BME280;12395;42.808;23.408;2022-09-01T14:04:46;94514.25;;;26.21;57.96
24280;BME280;12395;42.808;23.408;2022-09-01T14:07:11;94540.22;;;26.52;58.32
24280;BME280;12395;42.808;23.408;2022-09-01T14:09:36;94529.34;;;26.52;58.24
24280;BME280;12395;42.808;23.408;2022-09-01T14:12:02;94538.25;;;26.75;57.54